createdAt,value
2023-02-12T00:00:32.522Z,103515.72
2023-02-12T00:03:02.340Z,103512.44
2023-02-12T00:05:35.665Z,103521.41
2023-02-12T00:08:05.453Z,103528.72
2023-02-12T00:10:35.324Z,103525.41
2023-02-12T00:13:05.090Z,103531.66
2023-02-12T00:15:34.955Z,103521.66
2023-02-12T00:18:04.784Z,103524.13
2023-02-12T00:20:37.291Z,103524.94
2023-02-12T00:23:07.796Z,103520.59
2023-02-12T00:25:37.618Z,103516.22
2023-02-12T00:28:07.475Z,103518.34
2023-02-12T00:30:38.152Z,103514.22
2023-02-12T00:33:07.924Z,103523.44
2023-02-12T00:35:40.310Z,103525.31
2023-02-12T00:38:10.339Z,103524.50
2023-02-12T00:40:40.173Z,103519.28
2023-02-12T00:43:09.918Z,103518.72
2023-02-12T00:45:39.716Z,103512.72
2023-02-12T00:48:09.745Z,103521.91
2023-02-12T00:50:42.249Z,103520.28
2023-02-12T00:53:12.122Z,103520.28
2023-02-12T00:55:41.896Z,103520.28
2023-02-12T00:58:12.712Z,103515.06
2023-02-12T01:00:42.584Z,103523.19
2023-02-12T01:03:12.362Z,103516.97
2023-02-12T01:05:45.257Z,103511.53
2023-02-12T01:08:15.933Z,103515.31
2023-02-12T01:10:49.540Z,103515.81
2023-02-12T01:13:19.534Z,103514.16
2023-02-12T01:15:49.361Z,103516.25
2023-02-12T01:18:19.286Z,103508.13
2023-02-12T01:20:51.656Z,103521.09
2023-02-12T01:23:21.483Z,103520.88
2023-02-12T01:25:51.241Z,103516.25
2023-02-12T01:28:21.281Z,103512.47
2023-02-12T01:30:51.327Z,103509.78
2023-02-12T01:33:21.239Z,103514.16
2023-02-12T01:35:53.974Z,103516.63
2023-02-12T01:38:23.899Z,103503.31
2023-02-12T01:40:53.731Z,103500.00
2023-02-12T01:43:23.516Z,103502.97
2023-02-12T01:45:58.126Z,103497.53
2023-02-12T01:48:31.158Z,103498.84
2023-02-12T01:51:05.395Z,103493.66
2023-02-12T01:53:39.591Z,103499.31
2023-02-12T01:56:09.965Z,103497.66
2023-02-12T01:58:43.319Z,103501.44
2023-02-12T02:01:18.677Z,103491.66
2023-02-12T02:03:51.076Z,103495.44
2023-02-12T02:06:28.362Z,103493.56
2023-02-12T02:08:59.754Z,103492.72
2023-02-12T02:11:42.105Z,103494.38
2023-02-12T02:14:24.277Z,103495.44
2023-02-12T02:17:04.336Z,103487.31
2023-02-12T02:19:48.730Z,103487.31
2023-02-12T02:22:29.809Z,103486.72
2023-02-12T02:25:29.520Z,103480.72
2023-02-12T02:28:10.071Z,103481.28
2023-02-12T02:30:51.412Z,103477.75
2023-02-12T02:33:37.203Z,103476.94
2023-02-12T02:36:20.326Z,103479.66
2023-02-12T02:38:57.365Z,103471.88
2023-02-12T02:41:34.401Z,103466.22
2023-02-12T02:44:08.134Z,103469.50
2023-02-12T02:46:45.040Z,103470.56
2023-02-12T02:49:32.331Z,103474.84
2023-02-12T02:52:06.804Z,103467.28
2023-02-12T02:54:41.753Z,103469.41
2023-02-12T02:57:16.606Z,103468.00
2023-02-12T02:59:50.701Z,103477.44
2023-02-12T03:02:28.056Z,103470.81
2023-02-12T03:05:01.446Z,103477.88
2023-02-12T03:07:34.666Z,103475.41
2023-02-12T03:10:07.609Z,103481.09
2023-02-12T03:12:42.239Z,103477.19
2023-02-12T03:15:21.203Z,103471.44
2023-02-12T03:17:54.138Z,103486.88
2023-02-12T03:20:28.326Z,103475.22
2023-02-12T03:23:03.789Z,103482.72
2023-02-12T03:25:38.345Z,103479.44
2023-02-12T03:28:12.893Z,103474.84
2023-02-12T03:30:51.710Z,103480.50
2023-02-12T03:33:33.052Z,103477.47
2023-02-12T03:36:08.854Z,103484.53
2023-02-12T03:38:43.928Z,103491.00
2023-02-12T03:41:21.191Z,103483.72
2023-02-12T03:43:56.031Z,103478.28
2023-02-12T03:46:31.327Z,103475.34
2023-02-12T03:49:10.145Z,103483.47
2023-02-12T03:51:42.549Z,103489.00
2023-02-12T03:54:16.220Z,103485.22
2023-02-12T03:56:52.342Z,103486.88
2023-02-12T03:59:22.661Z,103486.88
2023-02-12T04:01:56.223Z,103482.28
2023-02-12T04:04:30.210Z,103481.47
2023-02-12T04:07:00.894Z,103485.22
2023-02-12T04:09:31.986Z,103501.47
2023-02-12T04:12:18.255Z,103489.47
2023-02-12T04:14:55.832Z,103500.28
2023-02-12T04:17:33.377Z,103501.34
2023-02-12T04:20:14.088Z,103506.19
2023-02-12T04:22:52.697Z,103504.06
2023-02-12T04:25:37.061Z,103509.13
2023-02-12T04:28:16.231Z,103516.22
2023-02-12T04:30:50.690Z,103518.69
2023-02-12T04:33:24.679Z,103511.63
2023-02-12T04:36:03.633Z,103508.91
2023-02-12T04:38:39.219Z,103517.84
2023-02-12T04:41:12.573Z,103523.50
2023-02-12T04:43:42.366Z,103519.94
2023-02-12T04:46:12.470Z,103529.97
2023-02-12T04:48:53.960Z,103532.56
2023-02-12T04:51:26.628Z,103538.19
2023-02-12T04:53:56.431Z,103532.56
2023-02-12T04:56:26.475Z,103532.56
2023-02-12T04:58:57.937Z,103535.88
2023-02-12T05:01:30.961Z,103536.44
2023-02-12T05:04:01.357Z,103527.25
2023-02-12T05:06:34.402Z,103531.63
2023-02-12T05:09:04.322Z,103530.56
2023-02-12T05:11:34.548Z,103538.69
2023-02-12T05:14:04.570Z,103528.69
2023-02-12T05:16:35.384Z,103528.69
2023-02-12T05:19:05.233Z,103537.88
2023-02-12T05:21:37.612Z,103529.97
2023-02-12T05:24:08.065Z,103539.16
2023-02-12T05:26:38.492Z,103536.44
2023-02-12T05:29:08.297Z,103544.81
2023-02-12T05:31:38.558Z,103538.81
2023-02-12T05:34:10.049Z,103542.59
2023-02-12T05:36:43.189Z,103550.91
2023-02-12T05:39:14.309Z,103545.50
2023-02-12T05:41:44.245Z,103544.69
2023-02-12T05:44:15.366Z,103545.50
2023-02-12T05:46:45.702Z,103551.97
2023-02-12T05:49:15.562Z,103556.81
2023-02-12T05:51:48.054Z,103551.88
2023-02-12T05:54:17.825Z,103560.22
2023-02-12T05:56:49.853Z,103556.69
2023-02-12T05:59:22.015Z,103556.44
2023-02-12T06:01:53.510Z,103554.81
2023-02-12T06:04:25.802Z,103550.22
2023-02-12T06:06:59.883Z,103561.03
2023-02-12T06:09:30.210Z,103561.03
2023-02-12T06:11:59.978Z,103557.31
2023-02-12T06:14:31.879Z,103551.41
2023-02-12T06:17:02.280Z,103543.88
2023-02-12T06:19:32.046Z,103548.81
2023-02-12T06:22:04.414Z,103545.06
2023-02-12T06:24:34.286Z,103551.28
2023-02-12T06:27:04.062Z,103548.00
2023-02-12T06:29:33.856Z,103550.91
2023-02-12T06:32:03.890Z,103556.34
2023-02-12T06:34:33.865Z,103560.09
2023-02-12T06:37:06.251Z,103561.53
2023-02-12T06:39:36.094Z,103559.03
2023-02-12T06:42:06.007Z,103554.69
2023-02-12T06:44:35.896Z,103555.19
2023-02-12T06:47:05.661Z,103565.44
2023-02-12T06:49:35.544Z,103566.94
2023-02-12T06:52:08.021Z,103565.28
2023-02-12T06:54:37.807Z,103570.34
2023-02-12T06:57:07.593Z,103566.22
2023-02-12T06:59:37.542Z,103568.94
2023-02-12T07:02:07.327Z,103566.22
2023-02-12T07:04:37.925Z,103573.28
2023-02-12T07:07:10.704Z,103574.94
2023-02-12T07:09:40.488Z,103581.25
2023-02-12T07:12:10.899Z,103585.50
2023-02-12T07:14:40.897Z,103582.22
2023-02-12T07:17:10.711Z,103579.28
2023-02-12T07:19:40.673Z,103591.50
2023-02-12T07:22:12.996Z,103582.94
2023-02-12T07:24:43.659Z,103577.88
2023-02-12T07:27:13.453Z,103588.22
2023-02-12T07:29:43.242Z,103588.59
2023-02-12T07:32:13.242Z,103586.47
2023-02-12T07:34:43.086Z,103586.03
2023-02-12T07:37:15.662Z,103589.31
2023-02-12T07:39:45.411Z,103596.38
2023-02-12T07:42:15.280Z,103596.97
2023-02-12T07:44:45.083Z,103595.94
2023-02-12T07:47:15.883Z,103601.94
2023-02-12T07:49:45.624Z,103599.22
2023-02-12T07:52:18.341Z,103600.03
2023-02-12T07:54:48.359Z,103602.28
2023-02-12T07:57:18.387Z,103600.88
2023-02-12T07:59:48.201Z,103607.94
2023-02-12T08:02:18.101Z,103604.16
2023-02-12T08:04:47.965Z,103607.47
2023-02-12T08:07:20.465Z,103604.78
2023-02-12T08:09:51.150Z,103606.41
2023-02-12T08:12:21.762Z,103612.41
2023-02-12T08:14:51.565Z,103612.41
2023-02-12T08:17:21.318Z,103612.41
2023-02-12T08:19:51.127Z,103612.66
2023-02-12T08:22:23.580Z,103617.84
2023-02-12T08:24:53.382Z,103613.63
2023-02-12T08:27:23.193Z,103617.25
2023-02-12T08:29:52.974Z,103617.03
2023-02-12T08:32:22.766Z,103632.81
2023-02-12T08:34:52.997Z,103627.97
2023-02-12T08:37:25.392Z,103635.66
2023-02-12T08:39:55.246Z,103632.94
2023-02-12T08:42:25.833Z,103637.28
2023-02-12T08:44:55.784Z,103631.28
2023-02-12T08:47:26.311Z,103645.44
2023-02-12T08:49:56.099Z,103637.28
2023-02-12T08:52:28.889Z,103634.59
2023-02-12T08:54:58.727Z,103636.81
2023-02-12T08:57:28.893Z,103641.16
2023-02-12T08:59:58.988Z,103637.88
2023-02-12T09:02:29.009Z,103641.16
2023-02-12T09:04:58.924Z,103642.94
2023-02-12T09:07:31.398Z,103639.66
2023-02-12T09:10:01.198Z,103642.25
2023-02-12T09:12:31.009Z,103642.97
2023-02-12T09:15:00.787Z,103640.97
2023-02-12T09:17:30.774Z,103643.75
2023-02-12T09:20:01.575Z,103652.00
2023-02-12T09:22:34.207Z,103647.78
2023-02-12T09:25:03.951Z,103661.44
2023-02-12T09:27:33.799Z,103650.69
2023-02-12T09:30:03.549Z,103645.38
2023-02-12T09:32:33.527Z,103653.59
2023-02-12T09:35:03.329Z,103646.16
2023-02-12T09:37:35.771Z,103649.56
2023-02-12T09:40:05.472Z,103651.09
2023-02-12T09:42:57.982Z,103647.56
2023-02-12T09:45:33.298Z,103649.81
2023-02-12T09:48:14.768Z,103644.72
2023-02-12T09:50:53.326Z,103646.22
2023-02-12T09:53:30.767Z,103647.72
2023-02-12T09:56:00.738Z,103646.75
2023-02-12T09:58:36.754Z,103657.16
2023-02-12T10:01:14.588Z,103648.75
2023-02-12T10:03:45.242Z,103649.44
2023-02-12T10:06:19.133Z,103653.22
2023-02-12T10:09:02.514Z,103654.84
2023-02-12T10:11:46.459Z,103654.34
2023-02-12T10:14:30.643Z,103659.31
2023-02-12T10:17:07.003Z,103661.06
2023-02-12T10:20:01.202Z,103652.91
2023-02-12T10:22:56.207Z,103661.75
2023-02-12T10:25:34.524Z,103654.81
2023-02-12T10:28:12.339Z,103651.13
2023-02-12T10:30:47.131Z,103656.97
2023-02-12T10:33:22.376Z,103663.56
2023-02-12T10:35:56.657Z,103654.66
2023-02-12T10:38:33.268Z,103660.19
2023-02-12T10:41:05.711Z,103646.19
2023-02-12T10:43:35.864Z,103648.16
2023-02-12T10:46:06.268Z,103650.06
2023-02-12T10:48:40.955Z,103654.44
2023-02-12T10:51:28.409Z,103656.25
2023-02-12T10:53:58.761Z,103645.69
2023-02-12T10:56:31.306Z,103646.03
2023-02-12T10:59:03.169Z,103644.69
2023-02-12T11:01:34.594Z,103644.25
2023-02-12T11:04:27.561Z,103642.63
2023-02-12T11:07:03.740Z,103648.78
2023-02-12T11:09:40.848Z,103629.31
2023-02-12T11:12:22.892Z,103638.38
2023-02-12T11:14:55.814Z,103642.47
2023-02-12T11:17:29.935Z,103639.19
2023-02-12T11:20:09.880Z,103639.75
2023-02-12T11:22:40.082Z,103631.78
2023-02-12T11:25:18.589Z,103627.97
2023-02-12T11:28:03.133Z,103622.53
2023-02-12T11:30:33.748Z,103628.06
2023-02-12T11:33:19.706Z,103623.88
2023-02-12T11:35:54.868Z,103625.34
2023-02-12T11:38:31.297Z,103623.19
2023-02-12T11:41:05.180Z,103608.56
2023-02-12T11:43:40.237Z,103619.50
2023-02-12T11:46:11.220Z,103617.34
2023-02-12T11:48:44.408Z,103620.63
2023-02-12T11:51:22.806Z,103614.69
2023-02-12T11:53:55.246Z,103612.03
2023-02-12T11:56:25.667Z,103607.72
2023-02-12T11:59:15.988Z,103610.72
2023-02-12T12:01:46.506Z,103608.53
2023-02-12T12:04:20.626Z,103599.56
2023-02-12T12:06:54.745Z,103606.31
2023-02-12T12:09:29.683Z,103602.16
2023-02-12T12:12:14.950Z,103605.47
2023-02-12T12:15:04.237Z,103602.22
2023-02-12T12:17:57.318Z,103596.31
2023-02-12T12:20:31.230Z,103595.28
2023-02-12T12:23:05.680Z,103590.94
2023-02-12T12:25:43.460Z,103584.94
2023-02-12T12:28:30.977Z,103583.78
2023-02-12T12:31:09.857Z,103579.97
2023-02-12T12:33:46.167Z,103583.25
2023-02-12T12:36:55.157Z,103579.97
2023-02-12T12:39:31.669Z,103572.97
2023-02-12T12:42:28.255Z,103562.41
2023-02-12T12:45:42.677Z,103565.19
2023-02-12T12:48:26.153Z,103558.97
2023-02-12T12:51:16.942Z,103559.53
2023-02-12T12:53:58.037Z,103560.97
2023-02-12T12:57:08.314Z,103553.03
2023-02-12T13:00:01.659Z,103548.66
2023-02-12T13:03:16.892Z,103547.25
2023-02-12T13:06:19.923Z,103535.47
2023-02-12T13:09:05.909Z,103536.31
2023-02-12T13:11:45.525Z,103536.63
2023-02-12T13:14:30.572Z,103531.16
2023-02-12T13:17:09.271Z,103523.56
2023-02-12T13:19:49.866Z,103529.00
2023-02-12T13:22:26.905Z,103526.88
2023-02-12T13:25:08.320Z,103529.13
2023-02-12T13:27:40.900Z,103522.09
2023-02-12T13:30:22.217Z,103523.13
2023-02-12T13:33:01.964Z,103522.56
2023-02-12T13:35:34.449Z,103514.63
2023-02-12T13:38:06.501Z,103506.97
2023-02-12T13:40:39.274Z,103506.72
2023-02-12T13:43:23.160Z,103508.94
2023-02-12T13:46:02.236Z,103511.72
2023-02-12T13:48:44.249Z,103513.38
2023-02-12T13:51:31.330Z,103516.84
2023-02-12T13:54:15.810Z,103522.56
2023-02-12T13:56:51.358Z,103516.03
2023-02-12T13:59:44.612Z,103512.72
2023-02-12T14:02:52.898Z,103498.28
2023-02-12T14:05:26.718Z,103516.03
2023-02-12T14:07:59.385Z,103515.50
2023-02-12T14:10:33.625Z,103507.00
2023-02-12T14:13:19.824Z,103514.84
2023-02-12T14:15:53.317Z,103514.06
2023-02-12T14:18:35.866Z,103510.19
2023-02-12T14:21:45.345Z,103526.25
2023-02-12T14:24:54.046Z,103518.63
2023-02-12T14:27:32.029Z,103518.97
2023-02-12T14:30:30.953Z,103523.31
2023-02-12T14:33:11.884Z,103509.47
2023-02-12T14:35:42.826Z,103516.00
2023-02-12T14:38:47.526Z,103519.75
2023-02-12T14:41:38.027Z,103508.34
2023-02-12T14:44:41.743Z,103515.84
2023-02-12T14:47:55.689Z,103506.81
2023-02-12T14:50:34.452Z,103512.31
2023-02-12T14:53:15.080Z,103509.31
2023-02-12T14:55:49.777Z,103512.59
2023-02-12T14:58:22.933Z,103510.41
2023-02-12T15:00:56.711Z,103510.97
2023-02-12T15:03:35.487Z,103516.41
2023-02-12T15:06:12.733Z,103520.00
2023-02-12T15:08:51.783Z,103509.53
2023-02-12T15:11:32.769Z,103508.16
2023-02-12T15:14:07.546Z,103503.28
2023-02-12T15:16:47.770Z,103504.34
2023-02-12T15:19:33.501Z,103501.63
2023-02-12T15:22:03.394Z,103498.41
2023-02-12T15:24:33.325Z,103499.47
2023-02-12T15:27:03.935Z,103491.84
2023-02-12T15:29:39.672Z,103491.00
2023-02-12T15:32:12.757Z,103485.25
2023-02-12T15:34:45.684Z,103478.97
2023-02-12T15:37:23.930Z,103484.75
2023-02-12T15:39:57.128Z,103481.00
2023-02-12T15:42:34.246Z,103482.91
2023-02-12T15:45:23.124Z,103482.03
2023-02-12T15:48:21.561Z,103481.97
2023-02-12T15:50:58.817Z,103465.13
2023-02-12T15:53:31.199Z,103478.47
2023-02-12T15:56:03.226Z,103476.84
2023-02-12T15:58:35.916Z,103464.56
2023-02-12T16:01:07.680Z,103472.44
2023-02-12T16:03:39.694Z,103465.84
2023-02-12T16:06:16.944Z,103466.06
2023-02-12T16:08:51.380Z,103475.31
2023-02-12T16:11:25.333Z,103468.75
2023-02-12T16:13:57.646Z,103473.06
2023-02-12T16:16:30.323Z,103471.41
2023-02-12T16:19:10.089Z,103468.63
2023-02-12T16:21:42.796Z,103469.19
2023-02-12T16:24:26.233Z,103469.16
2023-02-12T16:26:56.389Z,103475.16
2023-02-12T16:29:26.747Z,103468.06
2023-02-12T16:32:02.002Z,103474.59
2023-02-12T16:34:35.440Z,103472.97
2023-02-12T16:37:44.821Z,103468.53
2023-02-12T16:40:36.973Z,103474.47
2023-02-12T16:43:29.141Z,103474.47
2023-02-12T16:46:08.025Z,103483.72
2023-02-12T16:48:42.532Z,103484.53
2023-02-12T16:51:25.030Z,103476.53
2023-02-12T16:53:58.806Z,103480.91
2023-02-12T16:56:32.784Z,103480.34
2023-02-12T16:59:05.322Z,103481.44
2023-02-12T17:01:37.584Z,103487.69
2023-02-12T17:04:10.597Z,103490.66
2023-02-12T17:06:40.490Z,103498.81
2023-02-12T17:09:13.521Z,103494.47
2023-02-12T17:11:43.845Z,103491.75
2023-02-12T17:14:19.036Z,103495.28
2023-02-12T17:16:50.518Z,103492.81
2023-02-12T17:19:20.483Z,103489.53
2023-02-12T17:21:52.063Z,103494.41
2023-02-12T17:24:26.404Z,103497.13
2023-02-12T17:26:57.160Z,103495.47
2023-02-12T17:29:28.327Z,103501.41
2023-02-12T17:31:58.563Z,103506.56
2023-02-12T17:34:32.080Z,103503.75
2023-02-12T17:37:10.184Z,103505.09
2023-02-12T17:39:42.842Z,103498.84
2023-02-12T17:42:12.698Z,103503.19
2023-02-12T17:44:43.004Z,103495.56
2023-02-12T17:47:13.090Z,103505.03
2023-02-12T17:49:43.341Z,103497.69
2023-02-12T17:52:13.315Z,103497.44
2023-02-12T17:54:47.918Z,103502.88
2023-02-12T17:57:18.726Z,103502.31
2023-02-12T17:59:48.588Z,103491.94
2023-02-12T18:02:18.468Z,103493.03
2023-02-12T18:04:48.359Z,103497.88
2023-02-12T18:07:18.401Z,103496.22
2023-02-12T18:09:51.483Z,103499.47
2023-02-12T18:12:21.418Z,103500.53
2023-02-12T18:14:51.378Z,103506.00
2023-02-12T18:17:21.171Z,103506.00
2023-02-12T18:19:52.504Z,103494.53
2023-02-12T18:22:22.913Z,103502.13
2023-02-12T18:24:56.006Z,103498.56
2023-02-12T18:27:25.917Z,103502.84
2023-02-12T18:29:57.196Z,103505.81
2023-02-12T18:32:27.373Z,103506.34
2023-02-12T18:34:57.308Z,103505.53
2023-02-12T18:37:27.172Z,103511.19
2023-02-12T18:40:00.428Z,103506.00
2023-02-12T18:42:32.848Z,103514.41
2023-02-12T18:45:02.694Z,103507.34
2023-02-12T18:47:32.516Z,103504.88
2023-02-12T18:50:02.451Z,103506.19
2023-02-12T18:52:32.255Z,103505.38
2023-02-12T18:55:04.654Z,103504.53
2023-02-12T18:57:34.511Z,103500.19
2023-02-12T19:00:05.087Z,103497.97
2023-02-12T19:02:34.954Z,103500.69
2023-02-12T19:05:04.821Z,103497.97
2023-02-12T19:07:34.598Z,103497.16
2023-02-12T19:10:07.629Z,103497.97
2023-02-12T19:12:37.484Z,103489.25
2023-02-12T19:15:08.914Z,103497.38
2023-02-12T19:17:38.757Z,103500.09
2023-02-12T19:20:10.313Z,103491.31
2023-02-12T19:22:40.754Z,103491.25
2023-02-12T19:25:13.585Z,103490.66
2023-02-12T19:27:43.533Z,103484.66
2023-02-12T19:30:14.890Z,103494.72
2023-02-12T19:32:44.766Z,103485.41
2023-02-12T19:35:14.755Z,103490.53
2023-02-12T19:37:44.916Z,103482.84
2023-02-12T19:40:17.946Z,103477.69
2023-02-12T19:42:47.738Z,103478.50
2023-02-12T19:45:18.077Z,103486.66
2023-02-12T19:47:47.936Z,103488.53
2023-02-12T19:50:17.734Z,103486.66
2023-02-12T19:52:47.461Z,103480.38
2023-02-12T19:55:20.067Z,103476.28
2023-02-12T19:57:50.160Z,103481.63
2023-02-12T20:00:20.288Z,103478.34
2023-02-12T20:02:50.433Z,103480.72
2023-02-12T20:05:20.383Z,103480.97
2023-02-12T20:07:50.235Z,103476.63
2023-02-12T20:10:23.046Z,103475.81
2023-02-12T20:12:52.871Z,103475.22
2023-02-12T20:15:25.583Z,103483.03
2023-02-12T20:17:56.235Z,103489.44
2023-02-12T20:20:26.251Z,103481.00
2023-02-12T20:22:56.399Z,103482.31
2023-02-12T20:25:30.209Z,103483.34
2023-02-12T20:28:01.632Z,103483.34
2023-02-12T20:30:31.630Z,103475.72
2023-02-12T20:33:01.469Z,103480.56
2023-02-12T20:35:31.662Z,103484.38
2023-02-12T20:38:01.462Z,103479.75
2023-02-12T20:40:36.356Z,103481.03
2023-02-12T20:43:06.222Z,103478.28
2023-02-12T20:45:38.008Z,103489.59
2023-02-12T20:48:07.936Z,103486.88
2023-02-12T20:50:37.928Z,103484.16
2023-02-12T20:53:08.122Z,103486.06
2023-02-12T20:55:40.712Z,103484.16
2023-02-12T20:58:10.574Z,103479.91
2023-02-12T21:00:40.560Z,103480.47
2023-02-12T21:03:10.406Z,103479.97
2023-02-12T21:05:40.431Z,103474.22
2023-02-12T21:08:10.247Z,103478.28
2023-02-12T21:10:42.959Z,103471.16
2023-02-12T21:13:13.285Z,103472.84
2023-02-12T21:15:43.498Z,103474.97
2023-02-12T21:18:13.434Z,103476.03
2023-02-12T21:20:43.645Z,103476.53
2023-02-12T21:23:13.866Z,103476.72
2023-02-12T21:25:46.457Z,103467.19
2023-02-12T21:28:16.427Z,103477.78
2023-02-12T21:30:46.472Z,103473.44
2023-02-12T21:33:16.370Z,103483.47
2023-02-12T21:35:46.441Z,103478.28
2023-02-12T21:38:16.578Z,103481.81
2023-02-12T21:40:49.128Z,103476.97
2023-02-12T21:43:18.920Z,103477.78
2023-02-12T21:45:56.620Z,103485.13
2023-02-12T21:48:26.489Z,103488.44
2023-02-12T21:50:56.473Z,103488.22
2023-02-12T21:53:26.663Z,103490.09
2023-02-12T21:55:59.330Z,103484.03
2023-02-12T21:58:29.255Z,103488.44
2023-02-12T22:01:00.091Z,103480.75
2023-02-12T22:03:30.311Z,103479.69
2023-02-12T22:06:03.103Z,103474.25
2023-02-12T22:08:33.406Z,103477.56
2023-02-12T22:11:09.200Z,103473.19
2023-02-12T22:13:39.961Z,103472.16
2023-02-12T22:16:13.837Z,103474.00
2023-02-12T22:18:44.773Z,103476.53
2023-02-12T22:21:17.377Z,103465.03
2023-02-12T22:23:48.428Z,103474.25
2023-02-12T22:26:22.556Z,103463.09
2023-02-12T22:28:53.942Z,103466.63
2023-02-12T22:31:26.325Z,103473.94
2023-02-12T22:33:59.074Z,103468.50
2023-02-12T22:36:29.569Z,103468.50
2023-02-12T22:39:02.436Z,103472.03
2023-02-12T22:41:35.540Z,103473.34
2023-02-12T22:44:06.899Z,103468.97
2023-02-12T22:46:36.788Z,103468.16
2023-02-12T22:49:06.655Z,103469.81
2023-02-12T22:51:39.610Z,103466.88
2023-02-12T22:54:10.577Z,103469.34
2023-02-12T22:56:43.470Z,103476.41
2023-02-12T22:59:14.937Z,103476.16
2023-02-12T23:01:45.209Z,103478.03
2023-02-12T23:04:18.664Z,103476.41
2023-02-12T23:06:49.438Z,103475.06
2023-02-12T23:09:20.689Z,103477.56
2023-02-12T23:11:53.078Z,103476.84
2023-02-12T23:14:23.075Z,103480.97
2023-02-12T23:16:52.862Z,103476.94
2023-02-12T23:19:22.827Z,103477.75
2023-02-12T23:21:52.577Z,103479.09
2023-02-12T23:24:22.672Z,103477.41
2023-02-12T23:26:55.285Z,103475.47
2023-02-12T23:29:25.192Z,103475.91
2023-02-12T23:31:55.052Z,103474.25
2023-02-12T23:34:25.133Z,103464.47
2023-02-12T23:36:54.869Z,103470.97
2023-02-12T23:39:24.621Z,103467.09
2023-02-12T23:41:56.941Z,103466.06
2023-02-12T23:44:26.896Z,103458.94
2023-02-12T23:46:56.797Z,103458.94
2023-02-12T23:49:26.843Z,103457.31
2023-02-12T23:51:56.946Z,103458.94
2023-02-12T23:54:26.684Z,103450.00
2023-02-12T23:56:59.110Z,103446.47
2023-02-12T23:59:29.851Z,103444.00
